Time;durP1;ratioP1;P1;durP2;ratioP2;P2;SDS_P1;SDS_P2;PMS_P1;PMS_P2;Temp;Humidity;BMP_temperature;BMP_pressure;BME280_temperature;BME280_humidity;BME280_pressure;Samples;Min_cycle;Max_cycle;Signal;HPM_P1;HPM_P2
2021/06/19 00:01:40;;;;;;;25.70;20.25;;;;;;;23.88;100.00;100920.63;6247944;28;20054;-79
2021/06/19 00:04:41;;;;;;;22.85;18.63;;;;;;;23.86;99.73;100915.44;6248281;28;20077;-79
2021/06/19 00:07:44;;;;;;;21.80;18.60;;;;;;;23.83;99.27;100922.97;6247671;28;20258;-79
2021/06/19 00:10:45;;;;;;;26.05;19.02;;;;;;;23.79;99.82;100923.28;6247985;28;20500;-79
2021/06/19 00:13:47;;;;;;;26.73;19.00;;;;;;;23.77;99.79;100927.16;6247475;28;20056;-79
2021/06/19 00:16:48;;;;;;;21.48;18.00;;;;;;;23.82;99.09;100927.50;6247647;28;20048;-79
2021/06/19 00:19:49;;;;;;;22.98;18.33;;;;;;;23.82;99.32;100940.06;6247641;28;20050;-79
2021/06/19 00:22:53;;;;;;;24.77;18.67;;;;;;;23.77;98.44;100925.28;6247876;28;20493;-78
2021/06/19 00:25:54;;;;;;;24.08;19.98;;;;;;;23.74;98.34;100936.34;6247346;28;20057;-79
2021/06/19 00:28:55;;;;;;;24.10;19.45;;;;;;;23.68;99.48;100941.53;6247603;28;20064;-80
2021/06/19 00:31:57;;;;;;;20.73;18.13;;;;;;;23.66;99.75;100943.53;6247611;28;20420;-79
2021/06/19 00:34:58;;;;;;;19.73;17.63;;;;;;;23.54;100.00;100940.28;6247127;28;20394;-79
2021/06/19 00:38:01;;;;;;;24.05;18.90;;;;;;;23.45;100.00;100941.25;6247365;28;20056;-79
2021/06/19 00:41:02;;;;;;;21.52;18.67;;;;;;;23.46;100.00;100942.91;6247496;28;20082;-79
2021/06/19 00:44:04;;;;;;;21.13;18.67;;;;;;;23.48;100.00;100927.50;6247142;28;20056;-79
2021/06/19 00:47:05;;;;;;;21.98;18.10;;;;;;;23.45;100.00;100941.25;6247320;28;20056;-79
2021/06/19 00:50:07;;;;;;;23.67;18.75;;;;;;;23.42;100.00;100936.19;6247161;28;20046;-79
2021/06/19 00:53:10;;;;;;;22.98;19.45;;;;;;;23.41;100.00;100927.31;6247395;28;20053;-79
2021/06/19 00:56:12;;;;;;;24.73;18.55;;;;;;;23.44;100.00;100940.41;6246887;28;20508;-79
2021/06/19 00:59:15;;;;;;;22.45;19.33;;;;;;;23.45;100.00;100934.03;6247115;28;20041;-79
2021/06/19 01:02:16;;;;;;;26.30;19.02;;;;;;;23.38;100.00;100941.03;6247043;28;20055;-79
2021/06/19 01:05:17;;;;;;;28.95;19.30;;;;;;;23.31;100.00;100926.59;6247129;28;20503;-79
2021/06/19 01:08:20;;;;;;;23.13;17.67;;;;;;;23.25;100.00;100929.91;6251584;28;20049;-80
2021/06/19 01:11:22;;;;;;;21.38;18.45;;;;;;;23.23;100.00;100924.72;6251357;28;20050;-79
2021/06/19 01:14:23;;;;;;;24.73;18.25;;;;;;;23.22;100.00;100936.44;6251779;28;20134;-79
2021/06/19 01:17:25;;;;;;;24.25;18.27;;;;;;;23.18;100.00;100936.91;6250933;28;20049;-79
2021/06/19 01:20:26;;;;;;;24.50;18.30;;;;;;;23.17;100.00;100936.09;6251289;28;20052;-79
2021/06/19 01:23:29;;;;;;;24.13;17.73;;;;;;;23.19;100.00;100938.59;6251323;28;20041;-79
2021/06/19 01:26:32;;;;;;;22.33;16.55;;;;;;;23.20;100.00;100938.44;6251158;28;20052;-79
2021/06/19 01:29:34;;;;;;;25.13;17.80;;;;;;;23.12;99.92;100938.41;6250862;28;20049;-79
2021/06/19 01:32:40;;;;;;;25.25;18.08;;;;;;;23.09;99.60;100941.38;6250834;28;20564;-79
2021/06/19 01:35:41;;;;;;;22.42;16.77;;;;;;;23.04;99.76;100932.97;6250621;28;20068;-79
2021/06/19 01:38:45;;;;;;;23.67;17.38;;;;;;;23.01;99.88;100936.81;6251249;28;20054;-79
2021/06/19 01:41:48;;;;;;;22.90;16.92;;;;;;;22.98;99.34;100941.63;6250927;28;20057;-79
2021/06/19 01:44:50;;;;;;;23.17;16.98;;;;;;;22.98;98.59;100945.19;6250437;28;20060;-79
2021/06/19 01:47:52;;;;;;;21.92;18.58;;;;;;;23.06;97.83;100944.38;6250307;28;20424;-79
2021/06/19 01:50:54;;;;;;;24.33;15.93;;;;;;;22.99;98.98;100948.72;6250424;28;20048;-79
2021/06/19 01:53:56;;;;;;;19.83;16.55;;;;;;;22.97;99.44;100951.53;6250520;28;20056;-79
2021/06/19 01:56:58;;;;;;;20.02;17.25;;;;;;;22.89;99.49;100950.59;6250012;28;20050;-79
2021/06/19 02:00:01;;;;;;;19.65;16.23;;;;;;;22.81;99.54;100943.34;6250354;28;20049;-79
2021/06/19 02:03:06;;;;;;;18.17;16.23;;;;;;;22.75;99.87;100939.44;6250184;28;20065;-79
2021/06/19 02:06:07;;;;;;;22.10;16.23;;;;;;;22.75;99.52;100930.56;6249964;28;20424;-79
2021/06/19 02:09:10;;;;;;;19.25;15.25;;;;;;;22.69;99.73;100931.19;6249917;28;20512;-79
2021/06/19 02:12:13;;;;;;;19.60;15.27;;;;;;;22.66;99.49;100931.50;6249798;28;20049;-79
2021/06/19 02:15:15;;;;;;;20.25;16.23;;;;;;;22.63;99.22;100930.00;6249559;28;20116;-79
2021/06/19 02:18:17;;;;;;;20.80;16.27;;;;;;;22.56;99.43;100928.91;6249846;28;20055;-79
2021/06/19 02:21:18;;;;;;;26.35;16.67;;;;;;;22.56;99.17;100933.44;6249754;28;20046;-79
2021/06/19 02:24:20;;;;;;;22.00;15.45;;;;;;;22.56;98.54;100931.59;6249167;28;20060;-79
2021/06/19 02:27:22;;;;;;;24.83;15.32;;;;;;;22.52;98.88;100933.72;6249521;28;20054;-79
2021/06/19 02:30:26;;;;;;;26.40;15.80;;;;;;;22.45;98.83;100932.69;6248895;28;20053;-79
2021/06/19 02:33:27;;;;;;;23.00;14.93;;;;;;;22.39;99.28;100927.09;6249408;28;20061;-79
2021/06/19 02:36:28;;;;;;;17.65;14.75;;;;;;;22.37;99.75;100926.41;6248427;28;20041;-79
2021/06/19 02:39:30;;;;;;;23.83;15.50;;;;;;;22.31;100.00;100919.84;6249166;28;20448;-79
2021/06/19 02:42:32;;;;;;;18.63;15.10;;;;;;;22.30;99.95;100934.22;6249137;28;20516;-79
2021/06/19 02:45:34;;;;;;;27.75;16.40;;;;;;;22.22;100.00;100921.59;6249006;28;20386;-77
2021/06/19 02:48:36;;;;;;;22.23;15.80;;;;;;;22.22;99.79;100920.78;6248731;28;20075;-77
2021/06/19 02:51:37;;;;;;;20.10;15.52;;;;;;;22.20;100.00;100922.75;6248715;28;20107;-78
2021/06/19 02:54:40;;;;;;;24.15;15.23;;;;;;;22.19;100.00;100929.94;6248572;28;20425;-78
2021/06/19 02:57:43;;;;;;;21.75;15.80;;;;;;;22.17;99.80;100937.28;6249544;28;20132;-78
2021/06/19 03:00:45;;;;;;;21.05;15.23;;;;;;;22.19;99.47;100943.31;6249798;28;20500;-77
2021/06/19 03:03:46;;;;;;;24.88;15.75;;;;;;;22.22;98.58;100945.72;6249475;28;20053;-77
2021/06/19 03:06:48;;;;;;;23.25;15.32;;;;;;;22.30;96.74;100947.59;6249003;28;20421;-77
2021/06/19 03:09:49;;;;;;;21.60;14.55;;;;;;;22.38;95.77;100954.88;6248939;28;20424;-77
2021/06/19 03:12:52;;;;;;;18.65;14.63;;;;;;;22.39;94.81;100953.88;6249018;28;20056;-78
2021/06/19 03:15:53;;;;;;;19.83;13.68;;;;;;;22.42;94.34;100959.78;6249053;28;20053;-78
2021/06/19 03:18:55;;;;;;;27.55;14.40;;;;;;;22.48;93.78;100959.19;6249334;28;20061;-78
2021/06/19 03:21:58;;;;;;;19.95;13.95;;;;;;;22.47;93.80;100954.78;6248608;28;20052;-78
2021/06/19 03:24:59;;;;;;;18.42;12.93;;;;;;;22.41;94.04;100958.09;6248706;28;20416;-78
2021/06/19 03:28:04;;;;;;;22.65;14.55;;;;;;;22.33;94.48;100967.88;6248503;28;20052;-78
2021/06/19 03:31:06;;;;;;;20.50;13.07;;;;;;;22.35;94.45;100966.75;6248533;28;20045;-78
2021/06/19 03:34:07;;;;;;;22.80;14.35;;;;;;;22.35;94.24;100969.44;6248232;28;20053;-78
2021/06/19 03:37:09;;;;;;;19.15;12.50;;;;;;;22.39;94.40;100968.13;6247563;28;20444;-78
2021/06/19 03:40:11;;;;;;;19.33;13.70;;;;;;;22.33;94.98;100976.75;6247819;28;20042;-78
2021/06/19 03:43:13;;;;;;;20.73;13.77;;;;;;;22.26;95.76;100984.56;6247656;28;20061;-78
2021/06/19 03:46:15;;;;;;;19.10;13.90;;;;;;;22.33;94.95;100982.09;6245711;28;20041;-78
2021/06/19 03:49:16;;;;;;;21.10;13.75;;;;;;;22.28;95.28;100987.91;6246248;28;20069;-78
2021/06/19 03:52:17;;;;;;;25.38;14.07;;;;;;;22.24;95.32;100991.91;6246203;28;20049;-78
2021/06/19 03:55:19;;;;;;;25.63;14.07;;;;;;;22.27;95.19;100988.09;6245592;28;20053;-78
2021/06/19 03:58:22;;;;;;;20.48;13.90;;;;;;;22.24;95.72;100985.69;6245985;28;20057;-78
2021/06/19 04:01:23;;;;;;;25.85;13.57;;;;;;;22.18;96.28;100989.84;6245688;28;20056;-78
2021/06/19 04:04:24;;;;;;;22.58;14.48;;;;;;;22.16;95.99;100988.28;6245974;28;20045;-78
2021/06/19 04:07:25;;;;;;;17.13;13.60;;;;;;;22.11;96.89;100998.56;6245764;28;20389;-78
2021/06/19 04:10:27;;;;;;;26.88;14.23;;;;;;;22.04;96.94;101001.03;6246814;28;20046;-78
2021/06/19 04:13:29;;;;;;;23.55;13.57;;;;;;;22.03;97.17;101002.03;6247441;28;20049;-78
2021/06/19 04:16:31;;;;;;;26.02;13.75;;;;;;;21.93;97.57;101006.56;6246679;28;20412;-78
2021/06/19 04:19:32;;;;;;;18.42;13.20;;;;;;;21.99;96.71;101016.69;6247198;28;20053;-78
2021/06/19 04:22:34;;;;;;;25.98;14.60;;;;;;;21.96;95.37;101014.31;6247116;28;20396;-78
2021/06/19 04:25:35;;;;;;;27.85;14.98;;;;;;;22.01;93.81;101017.38;6247519;28;20424;-79
2021/06/19 04:28:38;;;;;;;23.13;13.05;;;;;;;22.09;92.74;101011.28;6247097;28;20056;-78
2021/06/19 04:31:40;;;;;;;25.10;12.73;;;;;;;22.16;91.97;101020.41;6247136;28;20164;-78
2021/06/19 04:34:42;;;;;;;22.70;13.45;;;;;;;22.16;90.92;101017.75;6246894;28;20050;-78
2021/06/19 04:37:45;;;;;;;22.02;12.68;;;;;;;22.18;90.41;101018.44;6247525;28;20060;-79
2021/06/19 04:40:50;;;;;;;29.38;12.40;;;;;;;22.16;91.01;101029.28;6247650;28;20046;-79
2021/06/19 04:44:07;;;;;;;32.47;12.45;;;;;;;22.22;90.14;101035.91;6252583;28;20111;-79
2021/06/19 04:47:09;;;;;;;24.38;12.68;;;;;;;22.20;89.95;101037.88;6251769;28;20063;-78
2021/06/19 04:50:12;;;;;;;22.42;12.10;;;;;;;22.22;89.69;101036.72;6251977;28;20049;-79
2021/06/19 04:53:13;;;;;;;17.67;11.30;;;;;;;22.20;90.11;101046.72;6251990;28;20454;-78
2021/06/19 04:56:15;;;;;;;31.10;11.65;;;;;;;22.24;89.65;101042.78;6251495;28;20456;-78
2021/06/19 04:59:17;;;;;;;26.95;11.75;;;;;;;22.24;89.40;101039.25;6251957;28;20049;-79
2021/06/19 05:02:19;;;;;;;24.90;11.35;;;;;;;22.37;89.08;101050.44;6251515;28;20045;-78
2021/06/19 05:05:23;;;;;;;17.90;11.40;;;;;;;22.36;88.31;101054.13;6251471;28;20493;-80
2021/06/19 05:08:24;;;;;;;18.17;10.00;;;;;;;22.40;88.20;101060.88;6250107;28;20509;-79
2021/06/19 05:11:26;;;;;;;18.27;10.00;;;;;;;22.46;87.99;101070.13;6250997;28;20052;-79
2021/06/19 05:14:29;;;;;;;17.73;9.30;;;;;;;22.52;88.17;101064.16;6250909;28;20049;-79
2021/06/19 05:17:31;;;;;;;17.95;10.15;;;;;;;22.54;87.45;101067.53;6251311;28;20053;-79
2021/06/19 05:20:32;;;;;;;20.60;9.27;;;;;;;22.58;86.85;101065.41;6251244;28;20412;-76
2021/06/19 05:23:33;;;;;;;19.20;8.95;;;;;;;22.65;86.54;101064.63;6251308;28;20054;-79
2021/06/19 05:26:35;;;;;;;12.40;8.10;;;;;;;22.66;86.91;101070.81;6250597;28;20045;-78
2021/06/19 05:29:38;;;;;;;17.55;7.85;;;;;;;22.76;84.98;101082.31;6251025;28;20045;-80
2021/06/19 05:32:39;;;;;;;10.27;7.97;;;;;;;22.82;86.06;101078.19;6250722;28;20049;-78
2021/06/19 05:35:41;;;;;;;12.60;7.97;;;;;;;22.85;85.04;101080.56;6250750;28;20053;-80
2021/06/19 05:38:42;;;;;;;17.52;7.68;;;;;;;22.85;84.52;101078.72;6251128;28;20053;-80
2021/06/19 05:41:44;;;;;;;13.27;6.60;;;;;;;22.92;84.60;101084.34;6250370;28;20049;-79
2021/06/19 05:44:46;;;;;;;9.57;6.28;;;;;;;22.95;84.75;101087.56;6250497;28;20045;-78
2021/06/19 05:47:48;;;;;;;18.27;6.15;;;;;;;23.04;83.38;101092.00;6251294;28;20057;-80
2021/06/19 05:50:49;;;;;;;14.07;5.53;;;;;;;23.12;81.96;101093.03;6250959;28;20056;-79
2021/06/19 05:53:52;;;;;;;16.63;6.13;;;;;;;23.21;81.71;101090.31;6249687;28;20049;-81
2021/06/19 05:56:53;;;;;;;12.00;5.25;;;;;;;23.19;82.13;101094.13;6249846;28;20425;-78
2021/06/19 05:59:56;;;;;;;14.93;6.15;;;;;;;23.21;81.65;101105.53;6248518;28;20559;-78
2021/06/19 06:02:57;;;;;;;17.88;6.38;;;;;;;23.41;81.37;101098.16;6250431;28;20052;-78
2021/06/19 06:05:58;;;;;;;12.50;5.90;;;;;;;23.41;81.21;101099.00;6248891;28;20056;-77
2021/06/19 06:09:00;;;;;;;13.10;5.40;;;;;;;23.45;79.40;101108.41;6247174;28;20037;-77
2021/06/19 06:12:01;;;;;;;8.65;4.40;;;;;;;23.52;78.53;101096.03;6250762;28;20412;-78
2021/06/19 06:15:06;;;;;;;12.38;4.53;;;;;;;23.50;77.99;101108.78;6249336;28;20046;-79
2021/06/19 06:18:08;;;;;;;16.10;4.30;;;;;;;23.55;78.23;101116.34;6247846;28;20067;-79
2021/06/19 06:21:09;;;;;;;7.22;3.78;;;;;;;23.61;77.12;101113.03;6245659;28;20049;-77
2021/06/19 06:24:11;;;;;;;11.85;4.20;;;;;;;23.65;78.43;101113.59;6248838;28;20060;-78
2021/06/19 06:27:13;;;;;;;13.40;4.35;;;;;;;23.62;75.48;101111.19;6245656;28;20450;-79
2021/06/19 06:30:17;;;;;;;12.48;4.32;;;;;;;23.57;75.31;101114.34;6250430;28;20060;-80
2021/06/19 06:33:20;;;;;;;12.48;4.38;;;;;;;23.64;76.20;101120.81;6250723;28;20512;-79
2021/06/19 06:36:21;;;;;;;9.77;4.25;;;;;;;23.64;75.60;101111.88;6253547;28;20104;-79
2021/06/19 06:39:22;;;;;;;7.55;3.60;;;;;;;23.79;76.43;101115.69;6249575;28;20044;-78
2021/06/19 06:42:24;;;;;;;11.80;3.53;;;;;;;23.64;77.01;101126.19;6250877;28;20053;-79
2021/06/19 06:45:27;;;;;;;9.13;3.67;;;;;;;23.71;76.55;101124.56;6251774;28;20398;-78
2021/06/19 06:48:29;;;;;;;9.48;4.40;;;;;;;23.70;77.60;101127.38;6250208;28;20045;-77
2021/06/19 06:51:34;;;;;;;11.57;4.03;;;;;;;23.71;76.86;101131.75;6264094;28;20048;-79
2021/06/19 06:54:38;;;;;;;13.10;3.90;;;;;;;23.77;74.39;101134.66;6248843;28;20049;-78
2021/06/19 06:57:40;;;;;;;15.50;3.70;;;;;;;23.87;74.50;101129.16;6246050;28;20089;-80
2021/06/19 07:00:42;;;;;;;9.93;3.78;;;;;;;23.74;75.18;101134.13;6250089;28;20052;-79
2021/06/19 07:03:44;;;;;;;5.63;3.15;;;;;;;23.77;76.20;101123.91;6250680;28;20049;-80
2021/06/19 07:06:45;;;;;;;6.97;3.08;;;;;;;23.92;73.22;101126.84;6251680;28;20060;-80
2021/06/19 07:09:46;;;;;;;8.20;3.35;;;;;;;23.87;73.01;101137.22;6251254;28;20046;-80
2021/06/19 07:12:48;;;;;;;9.02;2.72;;;;;;;24.10;69.51;101142.03;6249556;28;20049;-80
2021/06/19 07:15:50;;;;;;;11.43;2.97;;;;;;;24.03;70.16;101128.44;6250677;28;20049;-80
2021/06/19 07:18:52;;;;;;;8.70;2.92;;;;;;;23.95;69.76;101134.59;6250003;28;20072;-80
2021/06/19 07:21:53;;;;;;;8.55;2.80;;;;;;;23.93;69.93;101122.31;6248916;28;20049;-78
2021/06/19 07:24:54;;;;;;;12.38;3.00;;;;;;;23.91;70.49;101127.84;6248965;28;20045;-79
2021/06/19 07:27:58;;;;;;;10.15;2.72;;;;;;;24.17;69.15;101132.34;6248769;28;20057;-80
2021/06/19 07:31:00;;;;;;;4.07;2.22;;;;;;;24.11;67.81;101136.50;6248962;28;20674;-78
2021/06/19 07:34:02;;;;;;;4.43;2.03;;;;;;;24.20;66.51;101142.75;6248257;28;20053;-79
2021/06/19 07:37:04;;;;;;;7.97;2.38;;;;;;;24.22;65.35;101156.88;6247766;28;20054;-79
2021/06/19 07:40:07;;;;;;;2.67;1.80;;;;;;;24.25;65.37;101151.16;6248945;28;20418;-79
2021/06/19 07:43:08;;;;;;;5.32;2.05;;;;;;;24.33;64.16;101159.28;6248321;28;20049;-79
2021/06/19 07:46:11;;;;;;;6.28;2.30;;;;;;;24.29;64.79;101169.50;6247100;28;20060;-81
2021/06/19 07:49:12;;;;;;;7.53;2.13;;;;;;;24.24;65.75;101154.88;6249643;28;20045;-79
2021/06/19 07:52:13;;;;;;;7.45;2.65;;;;;;;24.24;65.54;101144.97;6240659;28;20049;-81
2021/06/19 07:55:15;;;;;;;5.93;1.90;;;;;;;24.22;64.85;101140.75;6248299;28;20049;-80
2021/06/19 07:58:16;;;;;;;6.70;2.10;;;;;;;24.25;65.09;101132.38;6250913;28;20056;-79
2021/06/19 08:01:20;;;;;;;6.40;2.00;;;;;;;24.31;67.66;101134.44;6249031;28;20049;-79
2021/06/19 08:04:21;;;;;;;4.00;2.20;;;;;;;24.39;67.10;101150.63;6248043;28;20052;-80
2021/06/19 08:07:23;;;;;;;21.80;15.32;;;;;;;24.37;67.81;101149.91;6257339;28;20060;-79
2021/06/19 08:10:26;;;;;;;8.50;2.28;;;;;;;24.44;64.08;101150.13;6249647;28;20056;-79
2021/06/19 08:13:27;;;;;;;2.22;1.65;;;;;;;24.59;64.79;101145.81;6250014;28;20475;-82
2021/06/19 08:16:30;;;;;;;7.97;2.35;;;;;;;24.50;65.13;101149.47;6259928;28;20254;-79
2021/06/19 08:19:32;;;;;;;7.05;1.80;;;;;;;24.56;66.13;101151.50;6276012;28;20049;-81
2021/06/19 08:22:33;;;;;;;4.72;2.20;;;;;;;24.50;65.69;101155.69;6275649;28;20053;-80
2021/06/19 08:25:34;;;;;;;5.13;1.83;;;;;;;24.68;65.51;101157.41;6272368;28;20049;-85
2021/06/19 08:28:36;;;;;;;3.30;1.90;;;;;;;24.50;64.44;101166.44;6272785;28;20140;-82
2021/06/19 08:31:40;;;;;;;6.32;1.88;;;;;;;24.51;64.07;101170.78;6274145;28;20052;-79
2021/06/19 08:34:41;;;;;;;2.08;1.50;;;;;;;24.56;64.24;101170.31;6274239;28;20049;-80
2021/06/19 08:37:43;;;;;;;3.60;1.45;;;;;;;24.50;64.85;101179.03;6271982;28;20053;-80
2021/06/19 08:40:44;;;;;;;10.05;2.00;;;;;;;24.53;64.32;101176.88;6272847;28;20053;-82
2021/06/19 08:43:46;;;;;;;3.50;1.38;;;;;;;24.69;65.28;101183.28;6257519;28;20060;-82
2021/06/19 08:46:48;;;;;;;2.80;1.48;;;;;;;24.64;63.39;101191.00;6248287;28;20056;-82
2021/06/19 08:49:51;;;;;;;5.70;1.45;;;;;;;24.62;62.52;101187.63;6248092;28;20049;-81
2021/06/19 08:52:53;;;;;;;6.82;1.63;;;;;;;24.62;63.38;101185.81;6246105;28;20052;-79
2021/06/19 08:55:54;;;;;;;4.88;1.50;;;;;;;24.76;64.59;101192.41;6237000;28;20054;-78
2021/06/19 08:58:55;;;;;;;5.10;1.63;;;;;;;24.86;64.69;101194.94;6238935;28;20038;-80
2021/06/19 09:01:58;;;;;;;2.38;1.83;;;;;;;24.72;64.29;101194.56;6248047;28;20041;-80
2021/06/19 09:05:05;;;;;;;6.30;1.40;;;;;;;24.83;63.29;101189.88;6248604;28;20041;-81
2021/06/19 09:08:07;;;;;;;7.68;1.70;;;;;;;24.76;63.69;101198.63;6247272;28;20049;-80
2021/06/19 09:11:28;;;;;;;3.60;1.63;;;;;;;24.76;61.49;101187.03;6237232;28;20049;-78
2021/06/19 09:14:30;;;;;;;2.85;1.67;;;;;;;24.98;62.33;101190.91;6241746;28;20053;-78
2021/06/19 09:17:33;;;;;;;2.58;1.58;;;;;;;25.04;61.74;101184.91;6246384;28;20088;-80
2021/06/19 09:20:39;;;;;;;3.45;1.45;;;;;;;24.97;62.12;101191.94;6235439;28;20045;-77
2021/06/19 09:23:42;;;;;;;4.25;1.50;;;;;;;24.84;62.89;101184.34;6246328;28;20710;-80
2021/06/19 09:26:44;;;;;;;3.70;1.60;;;;;;;24.88;61.84;101185.69;6245398;28;20057;-79
2021/06/19 09:29:45;;;;;;;3.20;1.60;;;;;;;24.82;64.16;101177.44;6249894;28;20049;-79
2021/06/19 09:32:50;;;;;;;2.38;1.55;;;;;;;24.89;60.70;101171.25;6251200;28;20488;-78
2021/06/19 09:35:51;;;;;;;2.28;1.70;;;;;;;24.89;61.38;101173.94;6249815;28;20392;-79
2021/06/19 09:39:01;;;;;;;3.17;1.60;;;;;;;24.83;60.50;101173.75;6252322;28;20056;-79
2021/06/19 09:42:05;;;;;;;1.55;1.40;;;;;;;24.84;61.15;101172.75;6251218;28;20053;-78
2021/06/19 09:45:18;;;;;;;3.95;2.00;;;;;;;24.92;60.52;101175.44;6251328;28;20060;-79
2021/06/19 09:48:25;;;;;;;5.35;1.63;;;;;;;25.02;60.73;101176.13;6252155;28;20066;-78
2021/06/19 09:51:27;;;;;;;3.75;1.95;;;;;;;25.18;60.37;101184.28;6252668;28;20056;-79
2021/06/19 09:54:28;;;;;;;2.22;1.67;;;;;;;25.13;61.11;101181.25;6251931;28;20051;-77
2021/06/19 09:57:38;;;;;;;5.65;3.55;;;;;;;25.29;61.91;101177.72;6253437;28;20060;-78
2021/06/19 10:00:40;;;;;;;4.35;1.80;;;;;;;25.40;60.35;101172.00;6255242;28;20046;-78
2021/06/19 10:03:53;;;;;;;5.63;2.10;;;;;;;25.36;60.35;101169.81;6254300;28;20128;-79
2021/06/19 10:06:56;;;;;;;2.15;1.60;;;;;;;25.29;60.89;101170.47;6253762;28;20049;-78
2021/06/19 10:09:58;;;;;;;8.20;1.77;;;;;;;25.37;60.26;101172.34;6251621;28;20072;-77
2021/06/19 10:13:00;;;;;;;5.70;2.10;;;;;;;25.30;60.76;101168.66;6252869;28;20041;-78
2021/06/19 10:16:02;;;;;;;2.88;1.90;;;;;;;25.36;60.31;101167.13;6254237;28;20049;-77
2021/06/19 10:19:06;;;;;;;3.47;1.95;;;;;;;25.38;59.80;101160.56;6252808;28;20142;-77
2021/06/19 10:22:08;;;;;;;6.20;2.13;;;;;;;25.41;61.03;101164.78;6253278;28;20049;-77
2021/06/19 10:25:14;;;;;;;2.78;2.03;;;;;;;25.46;59.89;101157.88;6252070;28;20493;-78
2021/06/19 10:28:16;;;;;;;5.88;1.80;;;;;;;25.55;58.63;101166.78;6253201;28;20052;-77
2021/06/19 10:31:18;;;;;;;5.43;1.92;;;;;;;25.57;57.92;101153.97;6249982;28;20397;-77
2021/06/19 10:34:24;;;;;;;3.70;1.80;;;;;;;25.62;58.69;101158.84;6246100;28;20497;-81
2021/06/19 10:37:30;;;;;;;2.08;1.63;;;;;;;25.69;57.04;101157.19;6250720;28;20056;-77
2021/06/19 10:40:32;;;;;;;4.60;1.95;;;;;;;25.76;56.82;101148.28;6250027;28;20639;-77
2021/06/19 10:43:42;;;;;;;5.03;1.90;;;;;;;25.72;58.39;101146.09;6252664;28;20052;-77
2021/06/19 10:46:43;;;;;;;5.53;1.77;;;;;;;25.81;58.87;101134.31;6251781;28;20053;-77
2021/06/19 10:49:46;;;;;;;3.40;1.80;;;;;;;26.03;57.39;101133.59;6248436;28;20057;-77
2021/06/19 10:53:02;;;;;;;4.88;1.35;;;;;;;26.11;58.72;101138.09;6252164;28;20045;-77
2021/06/19 10:56:04;;;;;;;4.00;1.73;;;;;;;26.14;56.73;101137.75;6252390;28;20046;-76
2021/06/19 10:59:16;;;;;;;4.50;1.38;;;;;;;26.37;56.33;101129.72;6249980;28;20053;-76
2021/06/19 11:02:50;;;;;;;3.92;1.38;;;;;;;26.49;55.55;101128.38;6254257;28;20572;-79
2021/06/19 11:05:59;;;;;;;1.00;0.95;;;;;;;26.65;52.06;101130.13;6248905;28;20471;-78
2021/06/19 11:09:10;;;;;;;1.27;1.17;;;;;;;26.93;50.31;101124.19;6253579;28;20053;-82
2021/06/19 11:12:24;;;;;;;3.50;1.05;;;;;;;26.94;51.13;101125.91;6236455;28;20132;-81
2021/06/19 11:15:34;;;;;;;3.08;1.35;;;;;;;26.89;54.44;101128.28;6243966;28;20133;-80
2021/06/19 11:18:54;;;;;;;2.22;1.27;;;;;;;26.96;52.14;101127.38;6254149;28;20644;-80
2021/06/19 11:22:24;;;;;;;2.25;1.10;;;;;;;27.06;53.83;101121.75;6260710;28;20060;-80
2021/06/19 11:25:51;;;;;;;4.13;1.27;;;;;;;27.37;53.19;101126.25;6252264;28;20049;-81
2021/06/19 11:28:52;;;;;;;3.00;1.40;;;;;;;27.54;51.29;101115.13;6252115;28;20096;-80
2021/06/19 11:31:53;;;;;;;1.90;1.25;;;;;;;27.80;49.54;101116.59;6250766;28;20049;-81
2021/06/19 11:34:58;;;;;;;3.05;1.10;;;;;;;27.83;50.37;101110.78;6252269;28;20044;-78
2021/06/19 11:38:00;;;;;;;1.27;1.00;;;;;;;27.77;49.83;101106.13;6254553;28;20056;-78
2021/06/19 11:41:10;;;;;;;2.15;0.70;;;;;;;28.21;48.58;101108.00;6246974;28;20049;-80
2021/06/19 11:44:31;;;;;;;7.53;0.93;;;;;;;28.49;47.79;101111.69;6253875;28;20060;-78
2021/06/19 11:47:32;;;;;;;5.75;1.20;;;;;;;28.64;47.92;101098.13;6248457;28;20133;-79
2021/06/19 11:50:37;;;;;;;2.78;1.00;;;;;;;29.03;46.69;101099.59;6237241;28;20061;-80
2021/06/19 11:53:39;;;;;;;3.75;0.90;;;;;;;29.03;44.02;101092.31;6240568;28;20041;-79
2021/06/19 11:56:42;;;;;;;5.47;1.10;;;;;;;28.93;44.75;101093.59;6243629;28;20049;-79
2021/06/19 11:59:43;;;;;;;5.68;1.33;;;;;;;29.05;44.75;101090.22;6246771;28;20053;-79
2021/06/19 12:02:44;;;;;;;6.22;1.35;;;;;;;29.56;44.77;101089.19;6234428;28;20052;-75
2021/06/19 12:05:48;;;;;;;1.15;0.93;;;;;;;29.60;42.92;101082.34;6246488;28;20049;-76
2021/06/19 12:08:49;;;;;;;1.20;0.70;;;;;;;29.86;41.87;101070.81;6247381;28;20042;-78
2021/06/19 12:11:54;;;;;;;0.98;0.80;;;;;;;30.16;42.69;101073.28;6246872;28;20057;-79
2021/06/19 12:14:55;;;;;;;2.38;0.85;;;;;;;30.33;41.48;101067.28;6247536;28;20049;-77
2021/06/19 12:17:58;;;;;;;0.98;0.80;;;;;;;30.74;44.15;101057.41;6246997;28;20049;-80
2021/06/19 12:21:03;;;;;;;2.63;1.10;;;;;;;30.89;42.64;101051.78;6248135;28;20059;-78
2021/06/19 12:24:20;;;;;;;0.98;0.80;;;;;;;30.68;41.19;101052.78;6236514;28;20049;-78
2021/06/19 12:27:22;;;;;;;4.65;0.82;;;;;;;30.86;42.71;101047.59;6249459;28;20062;-79
2021/06/19 12:30:23;;;;;;;3.50;0.85;;;;;;;30.95;42.08;101042.81;6246349;28;20042;-80
2021/06/19 12:33:25;;;;;;;4.05;1.02;;;;;;;31.47;40.96;101049.25;6243878;28;20053;-80
2021/06/19 12:36:29;;;;;;;0.73;0.73;;;;;;;32.02;40.40;101038.84;6249995;28;20045;-79
2021/06/19 12:39:31;;;;;;;1.73;0.70;;;;;;;32.55;40.50;101047.59;6252130;28;20053;-79
2021/06/19 12:42:46;;;;;;;1.10;0.85;;;;;;;32.38;38.77;101046.44;6251623;28;20075;-79
2021/06/19 12:45:49;;;;;;;1.20;0.80;;;;;;;32.33;36.36;101048.94;6249938;28;20053;-79
2021/06/19 12:48:50;;;;;;;0.93;0.60;;;;;;;31.74;38.02;101044.59;6246747;28;20081;-79
2021/06/19 12:52:04;;;;;;;0.68;0.55;;;;;;;31.52;39.29;101050.31;6240428;28;20401;-77
2021/06/19 12:55:11;;;;;;;1.88;0.75;;;;;;;31.63;37.07;101056.97;6217073;28;20046;-79
2021/06/19 12:58:14;;;;;;;4.63;1.27;;;;;;;31.52;38.74;101055.75;6221191;28;20054;-78
2021/06/19 13:01:19;;;;;;;1.23;0.73;;;;;;;31.69;39.38;101055.25;6226659;28;20050;-79
2021/06/19 13:04:28;;;;;;;3.53;0.90;;;;;;;31.62;37.59;101049.88;6228153;28;20049;-79
2021/06/19 13:07:32;;;;;;;5.40;1.05;;;;;;;31.68;39.13;101050.88;6228181;28;20108;-79
2021/06/19 13:10:33;;;;;;;0.80;0.80;;;;;;;31.85;38.29;101052.13;6228870;28;20042;-79
2021/06/19 13:13:39;;;;;;;2.38;0.80;;;;;;;32.49;37.76;101050.38;6230394;28;20046;-78
2021/06/19 13:16:42;;;;;;;3.05;1.00;;;;;;;31.65;39.19;101049.41;6226248;28;20053;-79
2021/06/19 13:19:44;;;;;;;5.15;0.77;;;;;;;31.97;37.77;101042.22;6228682;28;20061;-78
2021/06/19 13:23:02;;;;;;;2.88;0.50;;;;;;;32.46;39.02;101031.75;6227586;28;20061;-79
2021/06/19 13:26:06;;;;;;;1.83;0.70;;;;;;;32.69;32.51;101039.34;6229186;28;20054;-78
2021/06/19 13:29:08;;;;;;;1.58;0.80;;;;;;;32.55;32.39;101034.00;6227590;28;20054;-79
2021/06/19 13:32:11;;;;;;;3.10;0.70;;;;;;;32.05;34.13;101022.13;6228117;28;20048;-79
2021/06/19 13:35:12;;;;;;;2.83;0.70;;;;;;;32.16;34.65;101035.03;6238173;28;20056;-79
2021/06/19 13:38:15;;;;;;;1.17;0.68;;;;;;;32.20;33.20;101038.16;6245728;28;20051;-78
2021/06/19 13:41:25;;;;;;;2.70;0.70;;;;;;;32.28;33.51;101029.72;6230653;28;20053;-79
2021/06/19 13:44:29;;;;;;;2.65;0.95;;;;;;;32.50;34.16;101027.53;6229817;28;20137;-79
2021/06/19 13:47:31;;;;;;;2.45;0.80;;;;;;;32.79;33.49;101026.06;6230099;28;20488;-79
2021/06/19 13:50:33;;;;;;;5.65;0.90;;;;;;;32.45;34.76;101022.75;6227906;28;20060;-79
2021/06/19 13:53:35;;;;;;;2.10;0.73;;;;;;;32.75;34.85;101013.94;6228948;28;20556;-79
2021/06/19 13:56:37;;;;;;;1.48;0.93;;;;;;;32.48;33.60;101016.06;6227482;28;20054;-79
2021/06/19 13:59:38;;;;;;;1.15;0.73;;;;;;;32.53;33.94;101014.34;6227426;28;20512;-79
2021/06/19 14:02:39;;;;;;;1.33;0.80;;;;;;;32.84;33.55;101020.81;6228826;28;20049;-79